sensor_id;sensor_type;location;lat;lon;timestamp;P1;durP1;ratioP1;P2;durP2;ratioP2
74503;SDS011;62988;55.776;37.544;2023-04-25T00:02:01;10.50;;;3.70;;
74503;SDS011;62988;55.776;37.544;2023-04-25T00:04:27;13.63;;;5.20;;
74503;SDS011;62988;55.776;37.544;2023-04-25T00:06:53;14.25;;;4.65;;
74503;SDS011;62988;55.776;37.544;2023-04-25T00:09:19;10.65;;;4.80;;
74503;SDS011;62988;55.776;37.544;2023-04-25T00:11:44;13.35;;;4.68;;
74503;SDS011;62988;55.776;37.544;2023-04-25T00:14:10;15.25;;;4.82;;
74503;SDS011;62988;55.776;37.544;2023-04-25T00:16:35;12.30;;;4.13;;
74503;SDS011;62988;55.776;37.544;2023-04-25T00:19:01;13.67;;;4.63;;
74503;SDS011;62988;55.776;37.544;2023-04-25T00:21:27;21.67;;;5.22;;
74503;SDS011;62988;55.776;37.544;2023-04-25T00:23:53;10.52;;;3.95;;
74503;SDS011;62988;55.776;37.544;2023-04-25T00:26:19;10.60;;;3.58;;
74503;SDS011;62988;55.776;37.544;2023-04-25T00:28:46;12.77;;;3.80;;
74503;SDS011;62988;55.776;37.544;2023-04-25T00:31:11;15.40;;;3.80;;
74503;SDS011;62988;55.776;37.544;2023-04-25T00:33:37;9.00;;;4.10;;
74503;SDS011;62988;55.776;37.544;2023-04-25T00:36:02;13.60;;;4.00;;
74503;SDS011;62988;55.776;37.544;2023-04-25T00:38:27;11.50;;;3.92;;
74503;SDS011;62988;55.776;37.544;2023-04-25T00:40:53;12.52;;;4.32;;
74503;SDS011;62988;55.776;37.544;2023-04-25T00:43:20;9.43;;;4.45;;
74503;SDS011;62988;55.776;37.544;2023-04-25T00:45:46;10.35;;;4.20;;
74503;SDS011;62988;55.776;37.544;2023-04-25T00:48:13;11.57;;;3.90;;
74503;SDS011;62988;55.776;37.544;2023-04-25T00:50:38;14.48;;;4.45;;
74503;SDS011;62988;55.776;37.544;2023-04-25T00:53:04;16.37;;;4.20;;
74503;SDS011;62988;55.776;37.544;2023-04-25T00:55:29;11.68;;;3.83;;
74503;SDS011;62988;55.776;37.544;2023-04-25T00:57:56;10.73;;;3.55;;
74503;SDS011;62988;55.776;37.544;2023-04-25T01:00:22;9.75;;;4.63;;
74503;SDS011;62988;55.776;37.544;2023-04-25T01:02:47;14.63;;;3.60;;
74503;SDS011;62988;55.776;37.544;2023-04-25T01:05:13;13.48;;;4.35;;
74503;SDS011;62988;55.776;37.544;2023-04-25T01:07:38;11.23;;;3.28;;
74503;SDS011;62988;55.776;37.544;2023-04-25T01:10:04;8.93;;;3.28;;
74503;SDS011;62988;55.776;37.544;2023-04-25T01:12:31;12.90;;;4.13;;
74503;SDS011;62988;55.776;37.544;2023-04-25T01:14:56;17.88;;;5.03;;
74503;SDS011;62988;55.776;37.544;2023-04-25T01:17:22;15.48;;;3.97;;
74503;SDS011;62988;55.776;37.544;2023-04-25T01:19:47;14.00;;;5.63;;
74503;SDS011;62988;55.776;37.544;2023-04-25T01:22:14;11.30;;;3.75;;
74503;SDS011;62988;55.776;37.544;2023-04-25T01:24:39;12.55;;;3.97;;
74503;SDS011;62988;55.776;37.544;2023-04-25T01:27:05;11.32;;;3.90;;
74503;SDS011;62988;55.776;37.544;2023-04-25T01:29:30;7.47;;;4.00;;
74503;SDS011;62988;55.776;37.544;2023-04-25T01:31:56;12.13;;;4.25;;
74503;SDS011;62988;55.776;37.544;2023-04-25T01:34:23;15.77;;;4.20;;
74503;SDS011;62988;55.776;37.544;2023-04-25T01:36:50;9.95;;;3.88;;
74503;SDS011;62988;55.776;37.544;2023-04-25T01:39:16;8.75;;;4.30;;
74503;SDS011;62988;55.776;37.544;2023-04-25T01:41:42;9.75;;;4.40;;
74503;SDS011;62988;55.776;37.544;2023-04-25T01:44:07;11.18;;;4.20;;
74503;SDS011;62988;55.776;37.544;2023-04-25T01:46:33;11.25;;;3.80;;
74503;SDS011;62988;55.776;37.544;2023-04-25T01:48:59;16.17;;;4.43;;
74503;SDS011;62988;55.776;37.544;2023-04-25T01:51:24;14.20;;;4.53;;
74503;SDS011;62988;55.776;37.544;2023-04-25T01:53:50;13.98;;;4.60;;
74503;SDS011;62988;55.776;37.544;2023-04-25T01:56:15;15.57;;;4.85;;
74503;SDS011;62988;55.776;37.544;2023-04-25T01:58:42;16.25;;;5.10;;
74503;SDS011;62988;55.776;37.544;2023-04-25T02:01:07;16.13;;;5.03;;
74503;SDS011;62988;55.776;37.544;2023-04-25T02:03:34;9.50;;;4.00;;
74503;SDS011;62988;55.776;37.544;2023-04-25T02:05:59;18.77;;;4.78;;
74503;SDS011;62988;55.776;37.544;2023-04-25T02:08:25;14.05;;;5.07;;
74503;SDS011;62988;55.776;37.544;2023-04-25T02:10:51;16.33;;;4.70;;
74503;SDS011;62988;55.776;37.544;2023-04-25T02:13:17;17.43;;;4.50;;
74503;SDS011;62988;55.776;37.544;2023-04-25T02:15:42;16.63;;;5.57;;
74503;SDS011;62988;55.776;37.544;2023-04-25T02:18:07;24.83;;;5.37;;
74503;SDS011;62988;55.776;37.544;2023-04-25T02:20:35;19.90;;;5.32;;
74503;SDS011;62988;55.776;37.544;2023-04-25T02:23:01;16.23;;;4.60;;
74503;SDS011;62988;55.776;37.544;2023-04-25T02:25:26;17.17;;;4.53;;
74503;SDS011;62988;55.776;37.544;2023-04-25T02:27:52;18.42;;;5.95;;
74503;SDS011;62988;55.776;37.544;2023-04-25T02:30:17;18.77;;;4.80;;
74503;SDS011;62988;55.776;37.544;2023-04-25T02:32:42;16.47;;;4.30;;
74503;SDS011;62988;55.776;37.544;2023-04-25T02:35:08;13.10;;;4.63;;
74503;SDS011;62988;55.776;37.544;2023-04-25T02:37:34;17.88;;;4.80;;
74503;SDS011;62988;55.776;37.544;2023-04-25T02:40:00;15.45;;;5.03;;
74503;SDS011;62988;55.776;37.544;2023-04-25T02:42:25;16.80;;;4.45;;
74503;SDS011;62988;55.776;37.544;2023-04-25T02:44:51;22.08;;;5.35;;
74503;SDS011;62988;55.776;37.544;2023-04-25T02:47:16;17.77;;;4.43;;
74503;SDS011;62988;55.776;37.544;2023-04-25T02:49:42;17.30;;;5.20;;
74503;SDS011;62988;55.776;37.544;2023-04-25T02:52:07;17.23;;;4.80;;
74503;SDS011;62988;55.776;37.544;2023-04-25T02:54:32;15.63;;;4.77;;
74503;SDS011;62988;55.776;37.544;2023-04-25T02:56:58;18.30;;;4.87;;
74503;SDS011;62988;55.776;37.544;2023-04-25T02:59:23;17.80;;;4.77;;
74503;SDS011;62988;55.776;37.544;2023-04-25T03:01:48;13.35;;;4.85;;
74503;SDS011;62988;55.776;37.544;2023-04-25T03:04:14;14.68;;;4.55;;
74503;SDS011;62988;55.776;37.544;2023-04-25T03:06:40;14.05;;;4.43;;
74503;SDS011;62988;55.776;37.544;2023-04-25T03:09:05;11.55;;;4.25;;
74503;SDS011;62988;55.776;37.544;2023-04-25T03:11:31;9.63;;;3.95;;
74503;SDS011;62988;55.776;37.544;2023-04-25T03:13:56;11.75;;;4.13;;
74503;SDS011;62988;55.776;37.544;2023-04-25T03:16:22;9.75;;;4.40;;
74503;SDS011;62988;55.776;37.544;2023-04-25T03:18:47;15.35;;;4.57;;
74503;SDS011;62988;55.776;37.544;2023-04-25T03:21:14;12.05;;;4.10;;
74503;SDS011;62988;55.776;37.544;2023-04-25T03:23:40;11.40;;;4.13;;
74503;SDS011;62988;55.776;37.544;2023-04-25T03:26:05;12.48;;;4.25;;
74503;SDS011;62988;55.776;37.544;2023-04-25T03:28:30;9.90;;;4.43;;
74503;SDS011;62988;55.776;37.544;2023-04-25T03:30:55;13.80;;;4.50;;
74503;SDS011;62988;55.776;37.544;2023-04-25T03:33:21;12.50;;;4.50;;
74503;SDS011;62988;55.776;37.544;2023-04-25T03:35:46;16.42;;;4.22;;
74503;SDS011;62988;55.776;37.544;2023-04-25T03:38:12;13.97;;;5.33;;
74503;SDS011;62988;55.776;37.544;2023-04-25T03:40:37;10.63;;;4.07;;
74503;SDS011;62988;55.776;37.544;2023-04-25T03:43:03;14.77;;;4.13;;
74503;SDS011;62988;55.776;37.544;2023-04-25T03:45:28;12.30;;;4.33;;
74503;SDS011;62988;55.776;37.544;2023-04-25T03:47:53;16.88;;;4.30;;
74503;SDS011;62988;55.776;37.544;2023-04-25T03:50:19;12.87;;;4.43;;
74503;SDS011;62988;55.776;37.544;2023-04-25T03:52:44;12.95;;;4.53;;
74503;SDS011;62988;55.776;37.544;2023-04-25T03:55:09;11.20;;;4.03;;
74503;SDS011;62988;55.776;37.544;2023-04-25T03:57:35;13.40;;;4.75;;
74503;SDS011;62988;55.776;37.544;2023-04-25T04:00:00;11.03;;;5.83;;
74503;SDS011;62988;55.776;37.544;2023-04-25T04:02:26;11.20;;;4.85;;
74503;SDS011;62988;55.776;37.544;2023-04-25T04:04:51;12.13;;;5.00;;
74503;SDS011;62988;55.776;37.544;2023-04-25T04:07:17;12.17;;;5.03;;
74503;SDS011;62988;55.776;37.544;2023-04-25T04:09:42;13.73;;;5.50;;
74503;SDS011;62988;55.776;37.544;2023-04-25T04:12:07;15.30;;;5.93;;
74503;SDS011;62988;55.776;37.544;2023-04-25T04:14:33;13.32;;;5.75;;
74503;SDS011;62988;55.776;37.544;2023-04-25T04:16:58;17.80;;;6.10;;
74503;SDS011;62988;55.776;37.544;2023-04-25T04:19:23;20.53;;;6.37;;
74503;SDS011;62988;55.776;37.544;2023-04-25T04:21:49;17.50;;;6.43;;
74503;SDS011;62988;55.776;37.544;2023-04-25T04:24:14;16.85;;;5.97;;
74503;SDS011;62988;55.776;37.544;2023-04-25T04:26:41;17.27;;;6.40;;
74503;SDS011;62988;55.776;37.544;2023-04-25T04:29:09;14.55;;;7.28;;
74503;SDS011;62988;55.776;37.544;2023-04-25T04:31:35;21.02;;;7.65;;
74503;SDS011;62988;55.776;37.544;2023-04-25T04:34:01;12.75;;;7.10;;
74503;SDS011;62988;55.776;37.544;2023-04-25T04:36:26;20.40;;;6.78;;
74503;SDS011;62988;55.776;37.544;2023-04-25T04:38:52;16.50;;;7.28;;
74503;SDS011;62988;55.776;37.544;2023-04-25T04:41:18;13.27;;;5.93;;
74503;SDS011;62988;55.776;37.544;2023-04-25T04:43:44;17.92;;;7.28;;
74503;SDS011;62988;55.776;37.544;2023-04-25T04:46:10;15.57;;;7.68;;
74503;SDS011;62988;55.776;37.544;2023-04-25T04:48:35;19.00;;;7.85;;
74503;SDS011;62988;55.776;37.544;2023-04-25T04:51:01;15.55;;;7.25;;
74503;SDS011;62988;55.776;37.544;2023-04-25T04:53:27;19.65;;;8.50;;
74503;SDS011;62988;55.776;37.544;2023-04-25T04:55:52;18.45;;;7.70;;
74503;SDS011;62988;55.776;37.544;2023-04-25T04:58:18;23.23;;;8.10;;
74503;SDS011;62988;55.776;37.544;2023-04-25T05:00:44;17.98;;;8.23;;
74503;SDS011;62988;55.776;37.544;2023-04-25T05:03:09;28.98;;;9.18;;
74503;SDS011;62988;55.776;37.544;2023-04-25T05:05:36;17.85;;;8.13;;
74503;SDS011;62988;55.776;37.544;2023-04-25T05:08:05;24.85;;;8.48;;
74503;SDS011;62988;55.776;37.544;2023-04-25T05:10:30;17.33;;;8.10;;
74503;SDS011;62988;55.776;37.544;2023-04-25T05:12:55;14.87;;;8.50;;
74503;SDS011;62988;55.776;37.544;2023-04-25T05:15:21;16.77;;;8.03;;
74503;SDS011;62988;55.776;37.544;2023-04-25T05:17:46;25.63;;;9.20;;
74503;SDS011;62988;55.776;37.544;2023-04-25T05:20:11;15.87;;;7.27;;
74503;SDS011;62988;55.776;37.544;2023-04-25T05:22:37;14.73;;;7.03;;
74503;SDS011;62988;55.776;37.544;2023-04-25T05:25:02;18.92;;;8.05;;
74503;SDS011;62988;55.776;37.544;2023-04-25T05:27:28;20.35;;;7.70;;
74503;SDS011;62988;55.776;37.544;2023-04-25T05:29:54;16.80;;;7.23;;
74503;SDS011;62988;55.776;37.544;2023-04-25T05:32:19;13.73;;;7.05;;
74503;SDS011;62988;55.776;37.544;2023-04-25T05:34:45;22.27;;;7.10;;
74503;SDS011;62988;55.776;37.544;2023-04-25T05:37:10;13.48;;;6.75;;
74503;SDS011;62988;55.776;37.544;2023-04-25T05:39:35;15.40;;;7.40;;
74503;SDS011;62988;55.776;37.544;2023-04-25T05:42:01;16.33;;;6.63;;
74503;SDS011;62988;55.776;37.544;2023-04-25T05:44:27;21.23;;;8.07;;
74503;SDS011;62988;55.776;37.544;2023-04-25T05:46:52;12.48;;;6.97;;
74503;SDS011;62988;55.776;37.544;2023-04-25T05:49:18;17.37;;;6.77;;
74503;SDS011;62988;55.776;37.544;2023-04-25T05:51:43;19.90;;;7.17;;
74503;SDS011;62988;55.776;37.544;2023-04-25T05:54:08;14.10;;;6.80;;
74503;SDS011;62988;55.776;37.544;2023-04-25T05:56:34;15.38;;;6.88;;
74503;SDS011;62988;55.776;37.544;2023-04-25T05:59:00;12.07;;;5.70;;
74503;SDS011;62988;55.776;37.544;2023-04-25T06:01:25;16.20;;;6.97;;
74503;SDS011;62988;55.776;37.544;2023-04-25T06:03:51;19.13;;;7.20;;
74503;SDS011;62988;55.776;37.544;2023-04-25T06:06:17;20.65;;;6.43;;
74503;SDS011;62988;55.776;37.544;2023-04-25T06:08:43;11.80;;;5.47;;
74503;SDS011;62988;55.776;37.544;2023-04-25T06:11:08;17.30;;;5.70;;
74503;SDS011;62988;55.776;37.544;2023-04-25T06:13:34;13.88;;;5.63;;
74503;SDS011;62988;55.776;37.544;2023-04-25T06:15:59;10.82;;;5.65;;
74503;SDS011;62988;55.776;37.544;2023-04-25T06:18:25;14.30;;;6.03;;
74503;SDS011;62988;55.776;37.544;2023-04-25T06:20:50;17.73;;;6.05;;
74503;SDS011;62988;55.776;37.544;2023-04-25T06:23:15;12.23;;;4.90;;
74503;SDS011;62988;55.776;37.544;2023-04-25T06:25:41;14.57;;;5.03;;
74503;SDS011;62988;55.776;37.544;2023-04-25T06:28:06;13.25;;;5.25;;
74503;SDS011;62988;55.776;37.544;2023-04-25T06:30:31;17.45;;;5.07;;
74503;SDS011;62988;55.776;37.544;2023-04-25T06:32:57;13.40;;;4.33;;
74503;SDS011;62988;55.776;37.544;2023-04-25T06:35:22;10.35;;;5.13;;
74503;SDS011;62988;55.776;37.544;2023-04-25T06:37:47;10.07;;;6.00;;
74503;SDS011;62988;55.776;37.544;2023-04-25T06:40:13;14.55;;;5.35;;
74503;SDS011;62988;55.776;37.544;2023-04-25T06:42:38;7.47;;;3.85;;
74503;SDS011;62988;55.776;37.544;2023-04-25T06:45:04;9.20;;;4.03;;
74503;SDS011;62988;55.776;37.544;2023-04-25T06:47:29;11.65;;;4.00;;
74503;SDS011;62988;55.776;37.544;2023-04-25T06:49:55;9.68;;;4.00;;
74503;SDS011;62988;55.776;37.544;2023-04-25T06:52:20;13.38;;;4.43;;
74503;SDS011;62988;55.776;37.544;2023-04-25T06:54:45;13.65;;;4.72;;
74503;SDS011;62988;55.776;37.544;2023-04-25T06:57:11;10.13;;;4.55;;
74503;SDS011;62988;55.776;37.544;2023-04-25T06:59:36;12.65;;;3.63;;
74503;SDS011;62988;55.776;37.544;2023-04-25T07:02:02;9.55;;;3.53;;
74503;SDS011;62988;55.776;37.544;2023-04-25T07:04:28;7.63;;;3.55;;
74503;SDS011;62988;55.776;37.544;2023-04-25T07:06:54;10.30;;;4.05;;
74503;SDS011;62988;55.776;37.544;2023-04-25T07:09:20;10.55;;;4.03;;
74503;SDS011;62988;55.776;37.544;2023-04-25T07:11:45;13.20;;;4.18;;
74503;SDS011;62988;55.776;37.544;2023-04-25T07:14:10;14.60;;;4.45;;
74503;SDS011;62988;55.776;37.544;2023-04-25T07:16:36;13.47;;;4.80;;
74503;SDS011;62988;55.776;37.544;2023-04-25T07:19:01;10.93;;;4.70;;
74503;SDS011;62988;55.776;37.544;2023-04-25T07:21:27;15.02;;;5.05;;
74503;SDS011;62988;55.776;37.544;2023-04-25T07:23:52;8.63;;;4.53;;
74503;SDS011;62988;55.776;37.544;2023-04-25T07:26:17;14.93;;;4.37;;
74503;SDS011;62988;55.776;37.544;2023-04-25T07:28:43;11.13;;;4.83;;
74503;SDS011;62988;55.776;37.544;2023-04-25T07:31:08;17.42;;;5.32;;
74503;SDS011;62988;55.776;37.544;2023-04-25T07:33:34;19.50;;;6.25;;
74503;SDS011;62988;55.776;37.544;2023-04-25T07:35:59;14.65;;;5.03;;
74503;SDS011;62988;55.776;37.544;2023-04-25T07:38:25;12.63;;;5.38;;
74503;SDS011;62988;55.776;37.544;2023-04-25T07:40:50;12.77;;;4.50;;
74503;SDS011;62988;55.776;37.544;2023-04-25T07:43:16;11.67;;;4.33;;
74503;SDS011;62988;55.776;37.544;2023-04-25T07:45:45;9.07;;;4.03;;
74503;SDS011;62988;55.776;37.544;2023-04-25T07:48:11;10.73;;;4.47;;
74503;SDS011;62988;55.776;37.544;2023-04-25T07:50:36;13.95;;;4.75;;
74503;SDS011;62988;55.776;37.544;2023-04-25T07:53:01;10.65;;;4.45;;
74503;SDS011;62988;55.776;37.544;2023-04-25T07:55:27;16.60;;;4.22;;
74503;SDS011;62988;55.776;37.544;2023-04-25T07:57:53;10.35;;;3.30;;
74503;SDS011;62988;55.776;37.544;2023-04-25T08:00:18;20.17;;;4.15;;
74503;SDS011;62988;55.776;37.544;2023-04-25T08:02:44;17.70;;;4.60;;
74503;SDS011;62988;55.776;37.544;2023-04-25T08:05:09;11.88;;;3.95;;
74503;SDS011;62988;55.776;37.544;2023-04-25T08:10:05;12.03;;;4.70;;
74503;SDS011;62988;55.776;37.544;2023-04-25T08:12:30;17.27;;;4.80;;
74503;SDS011;62988;55.776;37.544;2023-04-25T08:14:56;14.50;;;4.07;;
74503;SDS011;62988;55.776;37.544;2023-04-25T08:17:21;13.05;;;4.75;;
74503;SDS011;62988;55.776;37.544;2023-04-25T08:19:46;19.23;;;4.73;;
74503;SDS011;62988;55.776;37.544;2023-04-25T08:22:12;16.43;;;4.10;;
74503;SDS011;62988;55.776;37.544;2023-04-25T08:24:37;12.32;;;4.20;;
74503;SDS011;62988;55.776;37.544;2023-04-25T08:27:03;15.93;;;4.55;;
74503;SDS011;62988;55.776;37.544;2023-04-25T08:29:28;7.93;;;3.80;;
74503;SDS011;62988;55.776;37.544;2023-04-25T08:31:53;15.47;;;4.27;;
74503;SDS011;62988;55.776;37.544;2023-04-25T08:34:19;14.57;;;4.05;;
74503;SDS011;62988;55.776;37.544;2023-04-25T08:36:45;11.73;;;4.35;;
74503;SDS011;62988;55.776;37.544;2023-04-25T08:39:11;9.32;;;3.47;;
74503;SDS011;62988;55.776;37.544;2023-04-25T08:41:36;19.83;;;4.40;;
74503;SDS011;62988;55.776;37.544;2023-04-25T08:44:03;16.48;;;4.82;;
74503;SDS011;62988;55.776;37.544;2023-04-25T08:46:28;8.30;;;3.30;;
74503;SDS011;62988;55.776;37.544;2023-04-25T08:48:56;8.98;;;3.95;;
74503;SDS011;62988;55.776;37.544;2023-04-25T08:51:25;9.88;;;3.78;;
74503;SDS011;62988;55.776;37.544;2023-04-25T08:53:51;6.50;;;3.30;;
74503;SDS011;62988;55.776;37.544;2023-04-25T08:56:16;15.48;;;3.60;;
74503;SDS011;62988;55.776;37.544;2023-04-25T08:58:50;15.55;;;3.72;;
74503;SDS011;62988;55.776;37.544;2023-04-25T09:01:16;14.32;;;2.90;;
74503;SDS011;62988;55.776;37.544;2023-04-25T09:03:42;4.82;;;2.55;;
74503;SDS011;62988;55.776;37.544;2023-04-25T09:06:09;9.77;;;2.92;;
74503;SDS011;62988;55.776;37.544;2023-04-25T09:08:36;4.93;;;1.75;;
74503;SDS011;62988;55.776;37.544;2023-04-25T09:11:01;9.02;;;3.25;;
74503;SDS011;62988;55.776;37.544;2023-04-25T09:13:27;5.37;;;2.93;;
74503;SDS011;62988;55.776;37.544;2023-04-25T09:15:56;12.63;;;2.70;;
74503;SDS011;62988;55.776;37.544;2023-04-25T09:20:47;13.17;;;3.60;;
74503;SDS011;62988;55.776;37.544;2023-04-25T09:23:14;7.93;;;3.05;;
74503;SDS011;62988;55.776;37.544;2023-04-25T09:25:39;12.80;;;3.28;;
74503;SDS011;62988;55.776;37.544;2023-04-25T09:28:05;6.57;;;2.70;;
74503;SDS011;62988;55.776;37.544;2023-04-25T09:30:32;6.03;;;2.80;;
74503;SDS011;62988;55.776;37.544;2023-04-25T09:32:58;6.72;;;2.78;;
74503;SDS011;62988;55.776;37.544;2023-04-25T09:35:28;7.53;;;2.83;;
74503;SDS011;62988;55.776;37.544;2023-04-25T09:37:54;9.47;;;3.20;;
74503;SDS011;62988;55.776;37.544;2023-04-25T09:40:19;11.80;;;3.95;;
74503;SDS011;62988;55.776;37.544;2023-04-25T09:42:44;7.90;;;3.08;;
74503;SDS011;62988;55.776;37.544;2023-04-25T09:45:12;8.30;;;3.72;;
74503;SDS011;62988;55.776;37.544;2023-04-25T09:47:37;9.80;;;3.67;;
74503;SDS011;62988;55.776;37.544;2023-04-25T09:50:04;9.40;;;3.60;;
74503;SDS011;62988;55.776;37.544;2023-04-25T09:52:38;11.52;;;4.43;;
74503;SDS011;62988;55.776;37.544;2023-04-25T09:55:03;7.63;;;3.80;;
74503;SDS011;62988;55.776;37.544;2023-04-25T09:57:29;12.98;;;3.95;;
74503;SDS011;62988;55.776;37.544;2023-04-25T09:59:55;6.82;;;3.83;;
74503;SDS011;62988;55.776;37.544;2023-04-25T10:02:21;9.85;;;4.68;;
74503;SDS011;62988;55.776;37.544;2023-04-25T10:04:47;7.07;;;3.70;;
74503;SDS011;62988;55.776;37.544;2023-04-25T10:07:13;8.55;;;3.70;;
74503;SDS011;62988;55.776;37.544;2023-04-25T10:09:39;10.70;;;4.15;;
74503;SDS011;62988;55.776;37.544;2023-04-25T10:12:05;12.48;;;4.15;;
74503;SDS011;62988;55.776;37.544;2023-04-25T10:14:31;9.75;;;4.10;;
74503;SDS011;62988;55.776;37.544;2023-04-25T10:16:59;14.40;;;5.05;;
74503;SDS011;62988;55.776;37.544;2023-04-25T10:19:25;11.63;;;4.75;;
74503;SDS011;62988;55.776;37.544;2023-04-25T10:22:34;9.05;;;5.00;;
74503;SDS011;62988;55.776;37.544;2023-04-25T10:24:39;7.75;;;4.53;;
74503;SDS011;62988;55.776;37.544;2023-04-25T10:27:05;11.27;;;4.68;;
74503;SDS011;62988;55.776;37.544;2023-04-25T10:29:31;20.20;;;4.10;;
74503;SDS011;62988;55.776;37.544;2023-04-25T10:31:56;6.43;;;3.03;;
74503;SDS011;62988;55.776;37.544;2023-04-25T10:34:38;7.80;;;3.90;;
74503;SDS011;62988;55.776;37.544;2023-04-25T10:37:04;11.10;;;3.92;;
74503;SDS011;62988;55.776;37.544;2023-04-25T10:39:30;7.80;;;3.63;;
74503;SDS011;62988;55.776;37.544;2023-04-25T10:41:58;12.32;;;3.42;;
74503;SDS011;62988;55.776;37.544;2023-04-25T10:44:27;6.22;;;2.75;;
74503;SDS011;62988;55.776;37.544;2023-04-25T10:46:54;5.72;;;3.03;;
74503;SDS011;62988;55.776;37.544;2023-04-25T10:52:38;8.63;;;3.00;;
74503;SDS011;62988;55.776;37.544;2023-04-25T11:00:00;6.38;;;2.53;;
74503;SDS011;62988;55.776;37.544;2023-04-25T11:02:26;8.75;;;2.78;;
74503;SDS011;62988;55.776;37.544;2023-04-25T11:04:53;21.08;;;2.80;;
74503;SDS011;62988;55.776;37.544;2023-04-25T11:07:44;6.25;;;2.35;;
74503;SDS011;62988;55.776;37.544;2023-04-25T11:10:04;8.05;;;2.90;;
74503;SDS011;62988;55.776;37.544;2023-04-25T11:12:33;7.88;;;3.00;;
74503;SDS011;62988;55.776;37.544;2023-04-25T11:15:05;4.63;;;2.85;;
74503;SDS011;62988;55.776;37.544;2023-04-25T11:17:31;7.03;;;2.15;;
74503;SDS011;62988;55.776;37.544;2023-04-25T11:19:56;9.90;;;2.88;;
74503;SDS011;62988;55.776;37.544;2023-04-25T11:22:22;3.53;;;1.92;;
74503;SDS011;62988;55.776;37.544;2023-04-25T11:24:47;6.10;;;2.30;;
74503;SDS011;62988;55.776;37.544;2023-04-25T11:27:13;5.75;;;2.13;;
74503;SDS011;62988;55.776;37.544;2023-04-25T11:29:38;5.55;;;2.10;;
74503;SDS011;62988;55.776;37.544;2023-04-25T11:32:04;6.55;;;2.97;;
74503;SDS011;62988;55.776;37.544;2023-04-25T11:34:30;10.50;;;3.28;;
74503;SDS011;62988;55.776;37.544;2023-04-25T11:36:57;10.95;;;3.03;;
74503;SDS011;62988;55.776;37.544;2023-04-25T11:39:23;14.05;;;2.92;;
74503;SDS011;62988;55.776;37.544;2023-04-25T11:41:49;5.80;;;2.53;;
74503;SDS011;62988;55.776;37.544;2023-04-25T11:44:15;8.82;;;3.08;;
74503;SDS011;62988;55.776;37.544;2023-04-25T11:46:42;9.27;;;2.60;;
74503;SDS011;62988;55.776;37.544;2023-04-25T11:49:07;7.35;;;3.45;;
74503;SDS011;62988;55.776;37.544;2023-04-25T11:51:42;19.50;;;3.50;;
74503;SDS011;62988;55.776;37.544;2023-04-25T11:54:08;7.80;;;2.60;;
74503;SDS011;62988;55.776;37.544;2023-04-25T11:56:33;5.78;;;2.45;;
74503;SDS011;62988;55.776;37.544;2023-04-25T12:01:28;7.38;;;2.28;;
74503;SDS011;62988;55.776;37.544;2023-04-25T12:03:53;12.52;;;2.97;;
74503;SDS011;62988;55.776;37.544;2023-04-25T12:06:19;7.75;;;2.47;;
74503;SDS011;62988;55.776;37.544;2023-04-25T12:09:03;9.03;;;2.63;;
74503;SDS011;62988;55.776;37.544;2023-04-25T12:11:32;7.10;;;2.28;;
74503;SDS011;62988;55.776;37.544;2023-04-25T12:14:03;6.72;;;2.50;;
74503;SDS011;62988;55.776;37.544;2023-04-25T12:16:30;6.90;;;2.20;;
74503;SDS011;62988;55.776;37.544;2023-04-25T12:19:05;4.75;;;2.10;;
74503;SDS011;62988;55.776;37.544;2023-04-25T12:21:30;9.75;;;2.85;;
74503;SDS011;62988;55.776;37.544;2023-04-25T12:24:07;6.68;;;2.30;;
74503;SDS011;62988;55.776;37.544;2023-04-25T12:29:21;4.53;;;2.70;;
74503;SDS011;62988;55.776;37.544;2023-04-25T12:31:47;7.93;;;2.55;;
74503;SDS011;62988;55.776;37.544;2023-04-25T12:34:13;9.98;;;2.97;;
74503;SDS011;62988;55.776;37.544;2023-04-25T12:36:38;7.30;;;2.58;;
74503;SDS011;62988;55.776;37.544;2023-04-25T12:39:04;4.65;;;2.17;;
74503;SDS011;62988;55.776;37.544;2023-04-25T12:41:30;6.93;;;2.55;;
74503;SDS011;62988;55.776;37.544;2023-04-25T12:43:55;5.35;;;2.28;;
74503;SDS011;62988;55.776;37.544;2023-04-25T12:46:21;5.43;;;2.53;;
74503;SDS011;62988;55.776;37.544;2023-04-25T12:48:47;8.23;;;3.55;;
74503;SDS011;62988;55.776;37.544;2023-04-25T12:51:13;5.32;;;2.45;;
74503;SDS011;62988;55.776;37.544;2023-04-25T12:53:38;6.65;;;2.30;;
74503;SDS011;62988;55.776;37.544;2023-04-25T12:56:06;11.07;;;2.95;;
74503;SDS011;62988;55.776;37.544;2023-04-25T12:58:31;5.70;;;2.40;;
74503;SDS011;62988;55.776;37.544;2023-04-25T13:00:58;9.63;;;2.90;;
74503;SDS011;62988;55.776;37.544;2023-04-25T13:03:23;7.00;;;2.10;;
74503;SDS011;62988;55.776;37.544;2023-04-25T13:05:49;6.63;;;1.83;;
74503;SDS011;62988;55.776;37.544;2023-04-25T13:08:17;6.93;;;2.20;;
74503;SDS011;62988;55.776;37.544;2023-04-25T13:10:42;6.28;;;2.38;;
74503;SDS011;62988;55.776;37.544;2023-04-25T13:13:08;7.60;;;2.07;;
74503;SDS011;62988;55.776;37.544;2023-04-25T13:15:33;8.68;;;2.25;;
74503;SDS011;62988;55.776;37.544;2023-04-25T13:17:59;9.10;;;2.55;;
74503;SDS011;62988;55.776;37.544;2023-04-25T13:20:24;13.37;;;2.00;;
74503;SDS011;62988;55.776;37.544;2023-04-25T13:22:49;5.95;;;2.50;;
74503;SDS011;62988;55.776;37.544;2023-04-25T13:25:15;11.00;;;2.90;;
74503;SDS011;62988;55.776;37.544;2023-04-25T13:27:41;8.98;;;2.78;;
74503;SDS011;62988;55.776;37.544;2023-04-25T13:30:09;5.28;;;2.40;;
74503;SDS011;62988;55.776;37.544;2023-04-25T13:32:34;14.48;;;2.67;;
74503;SDS011;62988;55.776;37.544;2023-04-25T13:35:03;6.75;;;2.63;;
74503;SDS011;62988;55.776;37.544;2023-04-25T13:37:29;9.32;;;2.83;;
74503;SDS011;62988;55.776;37.544;2023-04-25T13:39:55;13.77;;;2.88;;
74503;SDS011;62988;55.776;37.544;2023-04-25T13:42:21;8.68;;;2.22;;
74503;SDS011;62988;55.776;37.544;2023-04-25T13:44:46;11.30;;;3.40;;
74503;SDS011;62988;55.776;37.544;2023-04-25T13:47:12;8.53;;;3.10;;
74503;SDS011;62988;55.776;37.544;2023-04-25T13:49:37;5.22;;;2.38;;
74503;SDS011;62988;55.776;37.544;2023-04-25T13:52:02;5.57;;;2.30;;
74503;SDS011;62988;55.776;37.544;2023-04-25T13:54:29;8.20;;;2.75;;
74503;SDS011;62988;55.776;37.544;2023-04-25T13:56:54;13.07;;;2.90;;
74503;SDS011;62988;55.776;37.544;2023-04-25T13:59:23;5.03;;;2.53;;
74503;SDS011;62988;55.776;37.544;2023-04-25T14:01:49;9.45;;;2.83;;
74503;SDS011;62988;55.776;37.544;2023-04-25T14:04:14;8.07;;;2.83;;
74503;SDS011;62988;55.776;37.544;2023-04-25T14:06:40;11.23;;;3.25;;
74503;SDS011;62988;55.776;37.544;2023-04-25T14:09:06;14.25;;;3.17;;
74503;SDS011;62988;55.776;37.544;2023-04-25T14:11:35;7.90;;;2.80;;
74503;SDS011;62988;55.776;37.544;2023-04-25T14:14:01;6.63;;;2.63;;
74503;SDS011;62988;55.776;37.544;2023-04-25T14:16:27;8.17;;;2.77;;
74503;SDS011;62988;55.776;37.544;2023-04-25T14:18:52;5.00;;;2.60;;
74503;SDS011;62988;55.776;37.544;2023-04-25T14:21:19;9.52;;;2.47;;
74503;SDS011;62988;55.776;37.544;2023-04-25T14:23:46;7.88;;;2.83;;
74503;SDS011;62988;55.776;37.544;2023-04-25T14:26:11;6.13;;;2.38;;
74503;SDS011;62988;55.776;37.544;2023-04-25T14:28:37;6.82;;;2.58;;
74503;SDS011;62988;55.776;37.544;2023-04-25T14:31:03;6.90;;;2.38;;
74503;SDS011;62988;55.776;37.544;2023-04-25T14:33:29;8.93;;;3.10;;
74503;SDS011;62988;55.776;37.544;2023-04-25T14:35:54;7.75;;;2.58;;
74503;SDS011;62988;55.776;37.544;2023-04-25T14:38:20;7.55;;;2.63;;